Manhattan Beach, CA (90266)

2:23 AM PDT on July 29, 2016 (GMT -0700)
Tree Section | | Change Station

Elev 133 ft 33.89 °N, 118.40 °W | Updated 1 minute ago

Partly Cloudy
Partly Cloudy
68.9 °F
Feels Like 68.9 °F
N
0.0
Wind Variable Wind from WSW
Gusts 0.0 mph

Today
High -- | Low -- °F
--% Chance of Precip.
Yesterday
High -- | Low -- °F
Precip. -- in
Pressure 29.83 in
Visibility 10.0 miles
Clouds Few 1000 ft
Dew Point 64 °F
Humidity 85%
Rainfall 0.00 in
Snow Depth Not available.
6:03 AM 7:56 PM
Waning Crescent, 23% visible
METAR KLAX 290853Z VRB03KT 10SM FEW010 21/18 A2983 RMK AO2 SLP099 T02110183 58004
Pressure 29.83 in
Visibility 10.0 miles
Clouds Few 1000 ft
Dew Point 64 °F
Humidity 85%
Rainfall 0.00 in
Snow Depth Not available.
6:03 AM 7:56 PM
Waning Crescent, 23% visible
METAR KLAX 290853Z VRB03KT 10SM FEW010 21/18 A2983 RMK AO2 SLP099 T02110183 58004

10-Day Weather Forecast

Almanac

Astronomy

Jul. 29, 2016 Rise Set
Actual Time
Civil Twilight
Nautical Twilight
Astronomical Twilight
Moon
Length of Visible Light
Length of Day
Tomorrow will be .
, % of the Moon is Illuminated

Today's Extremes

State Highs State Lows

Community

WunderPhotos

Upload Photos

1,928,300 photos uploaded!

WunderBlog® & News

Nearby

Air Quality

  Air Quality AQ Index Pollutant
Not available.

Snow Depth

Station Depth Elevation

Earthquake Activity

City Distance Mag. Time & Date
Minimum magnitude displayed is 2.5.

Coastal Water Temperatures

Place Temperature

Stations

Nearby Weather Stations

Station Location Temp. Windchill Dew Point Humidity Wind Precip. Elev Updated Type
                   

Watches & Warnings

There are currently no watches in effect.